MAPA DE AEROPUERTO

INFORMACIÓN METAR y TAF

METAR FOR ENVA
ADDS - METARS form results

(1121 UTC 23 October 2021)
Data provider http://aviationweather.gov/metar/data/
 
METAR text: ENVA 231120Z 23005KT 9999 VCSH FEW008 FEW024CB SCT033 06/03 Q1016 TEMPO SHRA RMK WIND 670FT 24012KT
Conditions at: ENVA (TRONDHEIM/VAERNE, NO) observed 1120 UTC 23 October 2021
Temperature: 6.0°C (43°F)
Dewpoint: 3.0°C (37°F) [RH = 81%]
Pressure (altimeter): 30.00 inches Hg (1016.0 mb)
Winds: from the SW (230 degrees) at 6 MPH (5 knots; 2.6 m/s)
Visibility: 6 or more miles (10+ km)
Ceiling: at least 12,000 feet AGL
Clouds: few clouds at 800 feet AGL
few clouds at 2400 feet AGL
scattered clouds at 3300 feet AGL
Weather: VCSH  (showers in vicinity)

METAR text: ENVA 231050Z 27012KT 9999 VCSH FEW012 BKN025 05/03 Q1015 TEMPO SHRA RMK WIND 670FT 27012KT
Conditions at: ENVA (TRONDHEIM/VAERNE, NO) observed 1050 UTC 23 October 2021
Temperature: 5.0°C (41°F)
Dewpoint: 3.0°C (37°F) [RH = 87%]
Pressure (altimeter): 29.97 inches Hg (1015.0 mb)
Winds: from the W (270 degrees) at 14 MPH (12 knots; 6.2 m/s)
Visibility: 6 or more miles (10+ km)
Ceiling: 2500 feet AGL
Clouds: few clouds at 1200 feet AGL
broken clouds at 2500 feet AGL
Weather: VCSH  (showers in vicinity)

Forecast for: ENVA (TRONDHEIM/VAERNE, NO)
Text: TAF ENVA 2306/2406 27008KT 9999 FEW012 BKN030
Forecast period: 0600 to 1700 UTC 23 October 2021
Forecast type: FROM: standard forecast or significant change
Winds: from the W (270 degrees) at 9 MPH (8 knots; 4.1 m/s)
Visibility: 6 or more miles (10+ km)
Ceiling: 3000 feet AGL
Clouds: few clouds at 1200 feet AGL
broken clouds at 3000 feet AGL
Weather: no significant weather forecast for this period
Text: TEMPO 2306/2314 29015G25KT 4000 SHRASNGS BKN012CB
Forecast period: 0600 to 1400 UTC 23 October 2021
Forecast type: TEMPORARY: The following changes expected for less than half the time period
Winds: from the WNW (290 degrees) at 17 MPH (15 knots; 7.7 m/s)
gusting to 29 MPH (25 knots; 12.9 m/s)
Visibility: 2.49 miles (4.01 km)
Ceiling: 1200 feet AGL
Clouds: broken clouds at 1200 feet AGL
Weather: SHRA SHSN SHGS  (rain showers, snow showers, small hail or graupel showers)
Text: BECMG 2317/2319 10010KT
Forecast period: 1700 UTC 23 October 2021 to 0600 UTC 24 October 2021
Forecast type: BECOMING: Conditions expected to become as follows by 1900 UTC 23 October 2021
Winds: from the E (100 degrees) at 12 MPH (10 knots; 5.1 m/s)
Visibility: 6 or more miles (10+ km)
Ceiling: 3000 feet AGL
Clouds: few clouds at 1200 feet AGL
broken clouds at 3000 feet AGL
Weather: no significant weather forecast for this period